createdAt,value
2022-08-28T00:00:19.191Z,18.05
2022-08-28T00:01:19.176Z,18.05
2022-08-28T00:02:19.248Z,18.09
2022-08-28T00:03:19.142Z,18.05
2022-08-28T00:04:19.157Z,18.14
2022-08-28T00:05:19.123Z,18.17
2022-08-28T00:06:19.108Z,18.10
2022-08-28T00:07:19.095Z,18.10
2022-08-28T00:08:19.078Z,18.09
2022-08-28T00:09:19.060Z,18.05
2022-08-28T00:10:19.055Z,18.10
2022-08-28T00:11:19.039Z,18.11
2022-08-28T00:12:19.027Z,18.07
2022-08-28T00:13:19.138Z,18.07
2022-08-28T00:14:18.995Z,18.05
2022-08-28T00:15:18.984Z,18.11
2022-08-28T00:16:19.074Z,18.02
2022-08-28T00:17:18.959Z,18.01
2022-08-28T00:18:18.954Z,18.05
2022-08-28T00:19:18.929Z,18.05
2022-08-28T00:20:18.915Z,18.04
2022-08-28T00:21:18.898Z,18.02
2022-08-28T00:22:18.890Z,17.99
2022-08-28T00:23:18.877Z,18.05
2022-08-28T00:24:18.870Z,17.98
2022-08-28T00:25:18.852Z,18.02
2022-08-28T00:26:18.845Z,18.01
2022-08-28T00:27:18.821Z,18.02
2022-08-28T00:28:24.011Z,18.01
2022-08-28T00:29:18.795Z,17.99
2022-08-28T00:30:18.801Z,17.99
2022-08-28T00:31:18.824Z,18.09
2022-08-28T00:32:18.752Z,17.92
2022-08-28T00:33:18.739Z,17.95
2022-08-28T00:34:18.726Z,18.01
2022-08-28T00:35:19.739Z,17.98
2022-08-28T00:36:18.703Z,17.99
2022-08-28T00:37:18.684Z,18.04
2022-08-28T00:38:18.680Z,17.91
2022-08-28T00:39:18.655Z,17.86
2022-08-28T00:40:20.046Z,17.87
2022-08-28T00:41:24.810Z,17.94
2022-08-28T00:42:19.636Z,17.89
2022-08-28T00:43:18.604Z,17.96
2022-08-28T00:44:18.595Z,17.94
2022-08-28T00:45:18.579Z,17.92
2022-08-28T00:46:18.619Z,17.84
2022-08-28T00:47:18.543Z,17.89
2022-08-28T00:48:18.539Z,17.95
2022-08-28T00:49:18.520Z,17.86
2022-08-28T00:50:18.515Z,17.83
2022-08-28T00:51:18.493Z,17.86
2022-08-28T00:52:18.478Z,17.81
2022-08-28T00:53:18.464Z,17.76
2022-08-28T00:54:18.454Z,17.71
2022-08-28T00:55:18.442Z,17.81
2022-08-28T00:56:18.435Z,17.71
2022-08-28T00:57:18.416Z,17.66
2022-08-28T00:58:18.400Z,17.66
2022-08-28T00:59:18.387Z,17.68
2022-08-28T01:00:18.372Z,17.63
2022-08-28T01:01:18.393Z,17.57
2022-08-28T01:02:18.497Z,17.62
2022-08-28T01:03:18.330Z,17.55
2022-08-28T01:04:18.315Z,17.54
2022-08-28T01:05:18.296Z,17.45
2022-08-28T01:06:18.294Z,17.58
2022-08-28T01:07:18.273Z,17.57
2022-08-28T01:08:18.656Z,17.54
2022-08-28T01:09:21.008Z,17.43
2022-08-28T01:10:18.237Z,17.33
2022-08-28T01:11:18.223Z,17.35
2022-08-28T01:12:18.213Z,17.32
2022-08-28T01:13:18.192Z,17.35
2022-08-28T01:14:18.188Z,17.35
2022-08-28T01:15:18.169Z,17.46
2022-08-28T01:16:18.230Z,17.33
2022-08-28T01:17:18.148Z,17.36
2022-08-28T01:18:18.127Z,17.28
2022-08-28T01:19:18.109Z,17.40
2022-08-28T01:20:18.101Z,17.38
2022-08-28T01:21:20.261Z,17.32
2022-08-28T01:22:18.070Z,17.21
2022-08-28T01:23:18.062Z,17.33
2022-08-28T01:24:18.040Z,17.27
2022-08-28T01:25:18.030Z,17.25
2022-08-28T01:26:18.018Z,17.30
2022-08-28T01:27:18.010Z,17.33
2022-08-28T01:28:17.988Z,17.24
2022-08-28T01:29:17.985Z,17.24
2022-08-28T01:30:17.962Z,17.32
2022-08-28T01:31:17.994Z,17.25
2022-08-28T01:32:17.936Z,17.24
2022-08-28T01:33:17.928Z,17.27
2022-08-28T01:34:17.911Z,17.28
2022-08-28T01:35:17.895Z,17.21
2022-08-28T01:36:17.886Z,17.28
2022-08-28T01:37:17.874Z,17.20
2022-08-28T01:38:21.898Z,17.22
2022-08-28T01:39:18.862Z,17.15
2022-08-28T01:40:17.941Z,17.20
2022-08-28T01:41:17.815Z,17.22
2022-08-28T01:42:17.797Z,17.12
2022-08-28T01:43:17.791Z,17.10
2022-08-28T01:44:18.129Z,17.25
2022-08-28T01:45:17.762Z,17.14
2022-08-28T01:46:17.817Z,17.22
2022-08-28T01:47:17.733Z,17.18
2022-08-28T01:48:17.718Z,17.20
2022-08-28T01:49:17.707Z,17.14
2022-08-28T01:50:17.708Z,17.07
2022-08-28T01:51:20.494Z,17.10
2022-08-28T01:52:18.695Z,17.14
2022-08-28T01:53:18.676Z,17.07
2022-08-28T01:54:17.636Z,17.07
2022-08-28T01:55:21.486Z,17.10
2022-08-28T01:56:17.608Z,17.05
2022-08-28T01:57:17.600Z,17.21
2022-08-28T01:58:17.583Z,17.10
2022-08-28T01:59:17.567Z,17.15
2022-08-28T02:00:17.553Z,17.15
2022-08-28T02:01:17.639Z,17.22
2022-08-28T02:02:17.524Z,17.17
2022-08-28T02:03:17.518Z,17.12
2022-08-28T02:04:17.535Z,17.22
2022-08-28T02:05:17.490Z,17.14
2022-08-28T02:06:17.469Z,17.17
2022-08-28T02:07:17.465Z,17.21
2022-08-28T02:08:17.447Z,17.21
2022-08-28T02:09:17.439Z,17.21
2022-08-28T02:10:17.427Z,17.20
2022-08-28T02:11:17.406Z,17.21
2022-08-28T02:12:17.398Z,17.33
2022-08-28T02:13:17.451Z,17.25
2022-08-28T02:14:17.364Z,17.38
2022-08-28T02:15:17.354Z,17.35
2022-08-28T02:16:17.381Z,17.32
2022-08-28T02:17:17.327Z,17.36
2022-08-28T02:18:17.310Z,17.36
2022-08-28T02:19:17.296Z,17.36
2022-08-28T02:20:17.285Z,17.24
2022-08-28T02:21:17.277Z,17.36
2022-08-28T02:22:17.261Z,17.32
2022-08-28T02:23:17.246Z,17.28
2022-08-28T02:24:17.234Z,17.24
2022-08-28T02:25:17.217Z,17.21
2022-08-28T02:26:17.210Z,17.22
2022-08-28T02:27:17.193Z,17.10
2022-08-28T02:28:17.179Z,17.28
2022-08-28T02:29:17.179Z,17.28
2022-08-28T02:30:17.161Z,17.30
2022-08-28T02:31:17.190Z,17.35
2022-08-28T02:32:17.126Z,17.35
2022-08-28T02:33:17.105Z,17.33
2022-08-28T02:34:17.097Z,17.33
2022-08-28T02:35:17.081Z,17.33
2022-08-28T02:36:17.071Z,17.25
2022-08-28T02:37:17.051Z,17.17
2022-08-28T02:38:17.039Z,17.28
2022-08-28T02:39:17.029Z,17.27
2022-08-28T02:40:17.100Z,17.24
2022-08-28T02:41:16.999Z,17.17
2022-08-28T02:42:16.993Z,17.27
2022-08-28T02:43:16.981Z,17.27
2022-08-28T02:44:16.964Z,17.35
2022-08-28T02:45:16.945Z,17.25
2022-08-28T02:46:16.958Z,17.25
2022-08-28T02:47:16.927Z,17.18
2022-08-28T02:48:17.565Z,17.22
2022-08-28T02:49:16.897Z,17.18
2022-08-28T02:50:16.882Z,17.21
2022-08-28T02:51:16.872Z,17.25
2022-08-28T02:52:16.858Z,17.25
2022-08-28T02:53:16.839Z,17.30
2022-08-28T02:54:16.827Z,17.27
2022-08-28T02:55:16.813Z,17.25
2022-08-28T02:56:16.807Z,17.32
2022-08-28T02:57:16.790Z,17.17
2022-08-28T02:58:16.783Z,17.21
2022-08-28T02:59:16.764Z,17.17
2022-08-28T03:00:17.165Z,17.22
2022-08-28T03:01:16.796Z,17.22
2022-08-28T03:02:16.830Z,17.35
2022-08-28T03:03:16.708Z,17.36
2022-08-28T03:04:16.695Z,17.30
2022-08-28T03:05:16.678Z,17.25
2022-08-28T03:06:16.671Z,17.15
2022-08-28T03:07:16.646Z,17.14
2022-08-28T03:08:16.639Z,17.27
2022-08-28T03:09:16.620Z,17.22
2022-08-28T03:10:16.613Z,17.21
2022-08-28T03:11:16.591Z,17.21
2022-08-28T03:12:16.582Z,17.24
2022-08-28T03:13:26.503Z,17.14
2022-08-28T03:14:17.587Z,17.15
2022-08-28T03:15:16.548Z,17.18
2022-08-28T03:16:16.561Z,17.17
2022-08-28T03:17:16.517Z,17.17
2022-08-28T03:18:16.781Z,17.21
2022-08-28T03:19:16.490Z,17.12
2022-08-28T03:20:16.482Z,17.28
2022-08-28T03:21:16.459Z,17.14
2022-08-28T03:22:16.447Z,17.15
2022-08-28T03:23:16.433Z,17.18
2022-08-28T03:24:16.430Z,17.30
2022-08-28T03:25:16.410Z,17.20
2022-08-28T03:26:16.399Z,17.33
2022-08-28T03:27:16.379Z,17.18
2022-08-28T03:28:16.370Z,17.27
2022-08-28T03:29:16.354Z,17.30
2022-08-28T03:30:16.340Z,17.30
2022-08-28T03:31:16.372Z,17.35
2022-08-28T03:32:16.314Z,17.32
2022-08-28T03:33:16.300Z,17.30
2022-08-28T03:34:16.285Z,17.32
2022-08-28T03:35:16.277Z,17.20
2022-08-28T03:36:16.269Z,17.27
2022-08-28T03:37:16.249Z,17.39
2022-08-28T03:38:16.237Z,17.27
2022-08-28T03:39:16.224Z,17.36
2022-08-28T03:40:16.285Z,17.33
2022-08-28T03:41:16.196Z,17.32
2022-08-28T03:42:16.180Z,17.40
2022-08-28T03:43:16.165Z,17.24
2022-08-28T03:44:16.156Z,17.35
2022-08-28T03:45:16.135Z,17.38
2022-08-28T03:46:16.246Z,17.38
2022-08-28T03:47:16.112Z,17.32
2022-08-28T03:48:16.095Z,17.32
2022-08-28T03:49:16.095Z,17.33
2022-08-28T03:50:16.070Z,17.25
2022-08-28T03:51:16.064Z,17.21
2022-08-28T03:52:16.047Z,17.25
2022-08-28T03:53:16.032Z,17.30
2022-08-28T03:54:16.024Z,17.25
2022-08-28T03:55:16.002Z,17.35
2022-08-28T03:56:15.995Z,17.35
2022-08-28T03:57:15.972Z,17.17
2022-08-28T03:58:19.055Z,17.24
2022-08-28T03:59:15.949Z,17.30
2022-08-28T04:00:15.944Z,17.30
2022-08-28T04:01:16.031Z,17.22
2022-08-28T04:02:15.918Z,17.30
2022-08-28T04:03:16.013Z,17.33
2022-08-28T04:04:15.889Z,17.33
2022-08-28T04:05:15.874Z,17.32
2022-08-28T04:06:15.861Z,17.33
2022-08-28T04:07:15.844Z,17.24
2022-08-28T04:08:15.836Z,17.24
2022-08-28T04:09:15.814Z,17.40
2022-08-28T04:10:15.812Z,17.36
2022-08-28T04:11:15.787Z,17.43
2022-08-28T04:12:15.778Z,17.25
2022-08-28T04:13:15.757Z,17.38
2022-08-28T04:14:15.751Z,17.47
2022-08-28T04:15:15.738Z,17.45
2022-08-28T04:16:15.750Z,17.45
2022-08-28T04:17:15.714Z,17.45
2022-08-28T04:18:15.699Z,17.43
2022-08-28T04:19:15.680Z,17.43
2022-08-28T04:20:15.675Z,17.43
2022-08-28T04:21:15.654Z,17.40
2022-08-28T04:22:15.646Z,17.49
2022-08-28T04:23:15.622Z,17.42
2022-08-28T04:24:15.615Z,17.38
2022-08-28T04:25:15.601Z,17.40
2022-08-28T04:26:15.593Z,17.33
2022-08-28T04:27:15.576Z,17.33
2022-08-28T04:28:15.567Z,17.25
2022-08-28T04:29:15.547Z,17.28
2022-08-28T04:30:15.541Z,17.17
2022-08-28T04:31:15.599Z,17.17
2022-08-28T04:32:15.608Z,17.12
2022-08-28T04:33:15.490Z,17.21
2022-08-28T04:34:15.480Z,17.17
2022-08-28T04:35:15.465Z,17.22
2022-08-28T04:36:15.455Z,17.10
2022-08-28T04:37:15.442Z,17.12
2022-08-28T04:38:15.696Z,17.21
2022-08-28T04:39:15.416Z,17.27
2022-08-28T04:40:15.486Z,17.21
2022-08-28T04:41:15.386Z,17.21
2022-08-28T04:42:15.383Z,17.15
2022-08-28T04:43:15.358Z,17.28
2022-08-28T04:44:15.348Z,17.22
2022-08-28T04:45:15.337Z,17.27
2022-08-28T04:46:15.355Z,17.14
2022-08-28T04:47:15.304Z,17.22
2022-08-28T04:48:15.670Z,17.10
2022-08-28T04:49:15.273Z,17.17
2022-08-28T04:50:15.266Z,17.07
2022-08-28T04:51:15.247Z,17.12
2022-08-28T04:52:15.236Z,17.20
2022-08-28T04:53:15.227Z,17.14
2022-08-28T04:54:15.212Z,17.17
2022-08-28T04:55:15.198Z,17.17
2022-08-28T04:56:15.188Z,17.15
2022-08-28T04:57:15.170Z,17.17
2022-08-28T04:58:15.160Z,17.14
2022-08-28T04:59:15.141Z,17.18
2022-08-28T05:00:15.137Z,17.20
2022-08-28T05:01:15.274Z,17.22
2022-08-28T05:02:15.199Z,17.18
2022-08-28T05:03:15.094Z,17.15
2022-08-28T05:04:15.087Z,17.17
2022-08-28T05:05:15.067Z,17.25
2022-08-28T05:06:15.055Z,17.10
2022-08-28T05:07:15.037Z,17.27
2022-08-28T05:08:15.243Z,17.15
2022-08-28T05:09:15.012Z,17.28
2022-08-28T05:10:15.002Z,17.18
2022-08-28T05:11:30.738Z,17.17
2022-08-28T05:12:15.990Z,17.28
2022-08-28T05:13:14.957Z,17.27
2022-08-28T05:14:16.281Z,17.28
2022-08-28T05:15:14.925Z,17.20
2022-08-28T05:16:15.011Z,17.32
2022-08-28T05:17:14.904Z,17.25
2022-08-28T05:18:14.891Z,17.38
2022-08-28T05:19:14.877Z,17.32
2022-08-28T05:20:14.866Z,17.38
2022-08-28T05:21:14.850Z,17.24
2022-08-28T05:22:14.842Z,17.33
2022-08-28T05:23:14.826Z,17.40
2022-08-28T05:24:14.814Z,17.40
2022-08-28T05:25:14.793Z,17.45
2022-08-28T05:26:14.786Z,17.58
2022-08-28T05:27:14.767Z,17.49
2022-08-28T05:28:14.944Z,17.63
2022-08-28T05:29:14.747Z,17.45
2022-08-28T05:30:14.727Z,17.57
2022-08-28T05:31:14.733Z,17.62
2022-08-28T05:32:14.692Z,17.65
2022-08-28T05:33:14.684Z,17.70
2022-08-28T05:34:14.670Z,17.66
2022-08-28T05:35:14.665Z,17.73
2022-08-28T05:36:14.643Z,17.76
2022-08-28T05:37:19.438Z,17.68
2022-08-28T05:38:15.013Z,17.77
2022-08-28T05:39:14.605Z,17.83
2022-08-28T05:40:14.616Z,17.79
2022-08-28T05:41:14.581Z,17.92
2022-08-28T05:42:14.562Z,17.76
2022-08-28T05:43:14.553Z,17.83
2022-08-28T05:44:14.533Z,17.91
2022-08-28T05:45:14.526Z,17.91
2022-08-28T05:46:14.575Z,18.09
2022-08-28T05:47:14.496Z,17.98
2022-08-28T05:48:14.637Z,18.11
2022-08-28T05:49:14.465Z,17.96
2022-08-28T05:50:14.451Z,18.13
2022-08-28T05:51:14.446Z,18.20
2022-08-28T05:52:14.430Z,18.16
2022-08-28T05:53:14.417Z,18.17
2022-08-28T05:54:14.398Z,18.23
2022-08-28T05:55:14.392Z,18.14
2022-08-28T05:56:14.380Z,18.32
2022-08-28T05:57:14.361Z,18.29
2022-08-28T05:58:14.480Z,18.20
2022-08-28T05:59:14.333Z,18.29
2022-08-28T06:00:14.317Z,18.31
2022-08-28T06:01:14.316Z,18.26
2022-08-28T06:02:14.343Z,18.26
2022-08-28T06:03:14.281Z,18.36
2022-08-28T06:04:14.335Z,18.26
2022-08-28T06:05:14.256Z,18.28
2022-08-28T06:06:14.240Z,18.35
2022-08-28T06:07:14.223Z,18.32
2022-08-28T06:08:14.476Z,18.32
2022-08-28T06:09:14.199Z,18.23
2022-08-28T06:10:14.182Z,18.20
2022-08-28T06:11:14.173Z,18.34
2022-08-28T06:12:14.152Z,18.29
2022-08-28T06:13:14.141Z,18.32
2022-08-28T06:14:14.127Z,18.31
2022-08-28T06:15:14.121Z,18.28
2022-08-28T06:16:14.168Z,18.36
2022-08-28T06:17:14.094Z,18.32
2022-08-28T06:18:14.414Z,18.41
2022-08-28T06:19:14.066Z,18.42
2022-08-28T06:20:14.052Z,18.36
2022-08-28T06:21:14.037Z,18.47
2022-08-28T06:22:14.022Z,18.21
2022-08-28T06:23:14.007Z,18.42
2022-08-28T06:24:13.991Z,18.35
2022-08-28T06:25:13.983Z,18.34
2022-08-28T06:26:13.963Z,18.46
2022-08-28T06:27:13.957Z,18.47
2022-08-28T06:28:14.143Z,18.47
2022-08-28T06:29:13.940Z,18.49
2022-08-28T06:30:13.911Z,18.50
2022-08-28T06:31:24.324Z,18.47
2022-08-28T06:32:14.999Z,18.51
2022-08-28T06:33:13.883Z,18.53
2022-08-28T06:34:13.863Z,18.49
2022-08-28T06:35:13.844Z,18.53
2022-08-28T06:36:13.830Z,18.60
2022-08-28T06:37:13.823Z,18.65
2022-08-28T06:38:13.897Z,18.59
2022-08-28T06:39:13.801Z,18.60
2022-08-28T06:40:13.823Z,18.66
2022-08-28T06:41:13.773Z,18.66
2022-08-28T06:42:13.756Z,18.49
2022-08-28T06:43:13.744Z,18.60
2022-08-28T06:44:13.732Z,18.69
2022-08-28T06:45:13.720Z,18.68
2022-08-28T06:46:13.789Z,18.72
2022-08-28T06:47:13.690Z,18.74
2022-08-28T06:48:13.804Z,18.71
2022-08-28T06:49:13.664Z,18.71
2022-08-28T06:50:13.641Z,18.71
2022-08-28T06:51:13.630Z,18.79
2022-08-28T06:52:13.617Z,18.66
2022-08-28T06:53:13.604Z,18.60
2022-08-28T06:54:14.830Z,18.72
2022-08-28T06:55:13.583Z,18.66
2022-08-28T06:56:13.739Z,18.68
2022-08-28T06:57:14.574Z,18.79
2022-08-28T06:58:13.704Z,18.83
2022-08-28T06:59:13.531Z,18.78
2022-08-28T07:00:13.513Z,18.84
2022-08-28T07:01:14.091Z,18.76
2022-08-28T07:02:13.631Z,18.84
2022-08-28T07:03:13.470Z,18.83
2022-08-28T07:04:13.452Z,18.83
2022-08-28T07:05:13.442Z,18.87
2022-08-28T07:06:13.426Z,18.82
2022-08-28T07:07:31.298Z,18.79
2022-08-28T07:08:14.620Z,18.93
2022-08-28T07:09:13.396Z,18.93
2022-08-28T07:10:13.384Z,18.96
2022-08-28T07:11:13.359Z,19.02
2022-08-28T07:12:13.343Z,18.91
2022-08-28T07:13:13.334Z,18.99
2022-08-28T07:14:13.323Z,18.94
2022-08-28T07:15:13.306Z,18.99
2022-08-28T07:16:13.368Z,18.99
2022-08-28T07:17:13.283Z,19.06
2022-08-28T07:18:13.527Z,18.99
2022-08-28T07:19:13.259Z,19.09
2022-08-28T07:20:13.242Z,19.20
2022-08-28T07:21:13.230Z,19.15
2022-08-28T07:22:13.213Z,19.20
2022-08-28T07:23:13.206Z,19.16
2022-08-28T07:24:13.185Z,19.17
2022-08-28T07:25:13.177Z,19.23
2022-08-28T07:26:13.158Z,19.32
2022-08-28T07:27:18.315Z,19.32
2022-08-28T07:28:13.304Z,19.39
2022-08-28T07:29:13.127Z,19.42
2022-08-28T07:30:13.100Z,19.42
2022-08-28T07:31:13.150Z,19.32
2022-08-28T07:32:13.078Z,19.47
2022-08-28T07:33:13.204Z,19.32
2022-08-28T07:34:13.051Z,19.34
2022-08-28T07:35:13.046Z,19.46
2022-08-28T07:36:15.914Z,19.42
2022-08-28T07:37:15.406Z,19.46
2022-08-28T07:38:13.121Z,19.38
2022-08-28T07:39:12.990Z,19.35
2022-08-28T07:40:13.050Z,19.35
2022-08-28T07:41:12.963Z,19.52
2022-08-28T07:42:12.944Z,19.45
2022-08-28T07:43:12.940Z,19.52
2022-08-28T07:44:12.917Z,19.42
2022-08-28T07:45:12.907Z,19.52
2022-08-28T07:46:13.008Z,19.61
2022-08-28T07:47:12.884Z,19.47
2022-08-28T07:48:13.359Z,19.49
2022-08-28T07:49:12.858Z,19.49
2022-08-28T07:50:12.832Z,19.47
2022-08-28T07:51:12.832Z,19.39
2022-08-28T07:52:12.816Z,19.38
2022-08-28T07:53:12.805Z,19.39
2022-08-28T07:54:17.670Z,19.32
2022-08-28T07:55:12.771Z,19.24
2022-08-28T07:56:12.758Z,19.24
2022-08-28T07:57:12.746Z,19.39
2022-08-28T07:58:12.993Z,19.27
2022-08-28T07:59:13.973Z,19.35
2022-08-28T08:00:12.700Z,19.55
2022-08-28T08:01:12.759Z,19.50
2022-08-28T08:02:12.677Z,19.60
2022-08-28T08:03:12.703Z,19.70
2022-08-28T08:04:12.852Z,19.95
2022-08-28T08:05:12.638Z,19.95
2022-08-28T08:06:12.619Z,19.92
2022-08-28T08:07:12.612Z,19.90
2022-08-28T08:08:12.828Z,20.07
2022-08-28T08:09:12.586Z,20.15
2022-08-28T08:10:12.568Z,20.07
2022-08-28T08:11:16.530Z,20.12
2022-08-28T08:12:12.552Z,20.35
2022-08-28T08:13:12.534Z,20.35
2022-08-28T08:14:12.512Z,20.42
2022-08-28T08:15:12.515Z,20.48
2022-08-28T08:16:12.602Z,20.63
2022-08-28T08:17:12.484Z,20.83
2022-08-28T08:18:12.659Z,20.88
2022-08-28T08:19:12.454Z,20.97
2022-08-28T08:20:12.436Z,20.87
2022-08-28T08:21:12.425Z,20.96
2022-08-28T08:22:12.409Z,20.98
2022-08-28T08:23:12.402Z,21.08
2022-08-28T08:24:12.382Z,20.96
2022-08-28T08:25:13.394Z,20.96
2022-08-28T08:26:12.351Z,20.93
2022-08-28T08:27:12.345Z,20.94
2022-08-28T08:28:12.338Z,21.06
2022-08-28T08:29:12.315Z,21.26
2022-08-28T08:30:12.298Z,21.86
2022-08-28T08:31:12.356Z,22.41
2022-08-28T08:32:12.285Z,22.74
2022-08-28T08:33:12.267Z,22.45
2022-08-28T08:34:12.248Z,22.39
2022-08-28T08:35:12.238Z,22.36
2022-08-28T08:36:12.221Z,22.14
2022-08-28T08:37:12.212Z,22.08
2022-08-28T08:38:12.208Z,22.02
2022-08-28T08:39:12.180Z,22.06
2022-08-28T08:40:12.226Z,22.05
2022-08-28T08:41:12.159Z,22.02
2022-08-28T08:42:12.138Z,21.83
2022-08-28T08:43:12.127Z,21.85
2022-08-28T08:44:12.114Z,21.79
2022-08-28T08:45:12.105Z,21.83
2022-08-28T08:46:12.254Z,21.93
2022-08-28T08:47:14.851Z,21.98
2022-08-28T08:48:12.235Z,22.02
2022-08-28T08:49:12.050Z,22.12
2022-08-28T08:50:12.035Z,22.27
2022-08-28T08:51:12.026Z,22.35
2022-08-28T08:52:12.006Z,22.45
2022-08-28T08:53:12.001Z,22.52
2022-08-28T08:54:11.987Z,22.46
2022-08-28T08:55:11.969Z,22.52
2022-08-28T08:56:11.958Z,22.56
2022-08-28T08:57:11.951Z,22.61
2022-08-28T08:58:12.000Z,22.66
2022-08-28T08:59:11.925Z,22.64
2022-08-28T09:00:15.820Z,22.59
2022-08-28T09:01:11.947Z,22.64
2022-08-28T09:02:11.878Z,22.94
2022-08-28T09:03:11.911Z,23.47
2022-08-28T09:04:15.641Z,23.49
2022-08-28T09:05:11.841Z,23.32
2022-08-28T09:06:11.824Z,23.19
2022-08-28T09:07:11.808Z,23.19
2022-08-28T09:08:11.823Z,23.01
2022-08-28T09:09:11.789Z,22.88
2022-08-28T09:10:11.777Z,22.70
2022-08-28T09:11:11.762Z,22.74
2022-08-28T09:12:11.744Z,22.85
2022-08-28T09:13:11.733Z,23.12
2022-08-28T09:14:11.721Z,24.06
2022-08-28T09:15:11.710Z,25.04
2022-08-28T09:16:11.753Z,25.90
2022-08-28T09:17:11.685Z,26.42
2022-08-28T09:18:11.844Z,26.61
2022-08-28T09:19:11.654Z,26.61
2022-08-28T09:20:11.635Z,25.74
2022-08-28T09:21:11.626Z,25.23
2022-08-28T09:22:11.612Z,24.94
2022-08-28T09:23:13.075Z,24.48
2022-08-28T09:24:11.894Z,24.08
2022-08-28T09:25:11.580Z,23.82
2022-08-28T09:26:12.572Z,23.77
2022-08-28T09:27:14.373Z,23.67
2022-08-28T09:28:11.636Z,24.55
2022-08-28T09:29:11.530Z,25.11
2022-08-28T09:30:11.511Z,25.51
2022-08-28T09:31:11.556Z,25.59
2022-08-28T09:32:11.488Z,25.42
2022-08-28T09:33:11.484Z,25.05
2022-08-28T09:34:11.457Z,24.90
2022-08-28T09:35:11.442Z,24.74
2022-08-28T09:36:11.439Z,24.49
2022-08-28T09:37:14.032Z,24.39
2022-08-28T09:38:11.696Z,24.67
2022-08-28T09:39:11.393Z,24.42
2022-08-28T09:40:11.418Z,24.27
2022-08-28T09:41:11.367Z,24.23
2022-08-28T09:42:11.355Z,24.11
2022-08-28T09:43:11.350Z,24.06
2022-08-28T09:44:11.332Z,24.12
2022-08-28T09:45:11.316Z,24.98
2022-08-28T09:46:11.402Z,25.35
2022-08-28T09:47:11.283Z,26.04
2022-08-28T09:48:11.272Z,26.41
2022-08-28T09:49:11.270Z,26.29
2022-08-28T09:50:11.255Z,26.42
2022-08-28T09:51:11.240Z,27.33
2022-08-28T09:52:11.229Z,28.05
2022-08-28T09:53:11.213Z,28.87
2022-08-28T09:54:11.200Z,29.37
2022-08-28T09:55:11.182Z,29.73
2022-08-28T09:56:11.170Z,29.47
2022-08-28T09:57:11.156Z,28.74
2022-08-28T09:58:11.153Z,28.17
2022-08-28T09:59:11.132Z,27.33
2022-08-28T10:00:11.122Z,26.71
2022-08-28T10:01:11.201Z,26.32
2022-08-28T10:02:11.140Z,26.01
2022-08-28T10:03:11.083Z,26.76
2022-08-28T10:04:11.116Z,27.34
2022-08-28T10:05:11.056Z,28.17
2022-08-28T10:06:11.044Z,27.87
2022-08-28T10:07:11.031Z,27.53
2022-08-28T10:08:11.024Z,27.25
2022-08-28T10:09:11.011Z,27.09
2022-08-28T10:10:10.997Z,27.42
2022-08-28T10:11:10.979Z,28.21
2022-08-28T10:12:10.972Z,28.83
2022-08-28T10:13:10.956Z,28.62
2022-08-28T10:14:10.949Z,28.03
2022-08-28T10:15:10.928Z,27.45
2022-08-28T10:16:10.960Z,27.13
2022-08-28T10:17:10.903Z,26.78
2022-08-28T10:18:10.895Z,26.39
2022-08-28T10:19:10.886Z,26.06
2022-08-28T10:20:10.874Z,25.83
2022-08-28T10:21:10.857Z,25.61
2022-08-28T10:22:10.849Z,25.61
2022-08-28T10:23:14.442Z,25.49
2022-08-28T10:24:11.833Z,25.44
2022-08-28T10:25:10.800Z,25.34
2022-08-28T10:26:10.795Z,25.41
2022-08-28T10:27:10.775Z,25.34
2022-08-28T10:28:10.767Z,25.56
2022-08-28T10:29:10.750Z,25.66
2022-08-28T10:30:13.402Z,25.83
2022-08-28T10:31:10.800Z,25.78
2022-08-28T10:32:10.720Z,26.09
2022-08-28T10:33:10.702Z,26.23
2022-08-28T10:34:10.693Z,26.19
2022-08-28T10:35:10.676Z,25.72
2022-08-28T10:36:32.923Z,25.63
2022-08-28T10:37:11.675Z,25.45
2022-08-28T10:38:10.644Z,25.42
2022-08-28T10:39:10.620Z,25.35
2022-08-28T10:40:10.651Z,25.35
2022-08-28T10:41:10.599Z,25.34
2022-08-28T10:42:10.585Z,25.34
2022-08-28T10:43:10.568Z,25.36
2022-08-28T10:44:10.565Z,25.59
2022-08-28T10:45:10.552Z,25.78
2022-08-28T10:46:10.563Z,26.00
2022-08-28T10:47:10.525Z,26.11
2022-08-28T10:48:10.516Z,26.01
2022-08-28T10:49:10.499Z,25.74
2022-08-28T10:50:10.488Z,25.29
2022-08-28T10:51:10.474Z,25.02
2022-08-28T10:52:10.467Z,24.75
2022-08-28T10:53:10.448Z,24.39
2022-08-28T10:54:10.434Z,24.14
2022-08-28T10:55:10.423Z,24.09
2022-08-28T10:56:10.415Z,24.11
2022-08-28T10:57:10.397Z,24.05
2022-08-28T10:58:24.478Z,23.82
2022-08-28T10:59:11.397Z,23.71
2022-08-28T11:00:10.366Z,23.78
2022-08-28T11:01:10.365Z,23.74
2022-08-28T11:02:10.355Z,23.86
2022-08-28T11:03:27.015Z,23.87
2022-08-28T11:04:11.329Z,24.29
2022-08-28T11:05:10.295Z,24.61
2022-08-28T11:06:10.283Z,24.70
2022-08-28T11:07:10.263Z,24.66
2022-08-28T11:08:10.251Z,24.61
2022-08-28T11:09:10.239Z,24.59
2022-08-28T11:10:10.232Z,24.44
2022-08-28T11:11:10.211Z,24.51
2022-08-28T11:12:10.201Z,24.56
2022-08-28T11:13:10.305Z,24.56
2022-08-28T11:14:10.185Z,24.48
2022-08-28T11:15:10.167Z,24.51
2022-08-28T11:16:10.152Z,24.63
2022-08-28T11:17:10.250Z,24.74
2022-08-28T11:18:10.121Z,24.77
2022-08-28T11:19:10.110Z,24.87
2022-08-28T11:20:10.109Z,25.75
2022-08-28T11:21:10.090Z,26.27
2022-08-28T11:22:10.075Z,26.39
2022-08-28T11:23:10.053Z,26.32
2022-08-28T11:24:10.043Z,26.08
2022-08-28T11:25:10.030Z,25.89
2022-08-28T11:26:10.030Z,25.72
2022-08-28T11:27:10.007Z,25.86
2022-08-28T11:28:09.999Z,26.31
2022-08-28T11:29:09.982Z,26.13
2022-08-28T11:30:09.973Z,25.81
2022-08-28T11:31:10.021Z,25.78
2022-08-28T11:32:10.970Z,26.09
2022-08-28T11:33:10.050Z,25.82
2022-08-28T11:34:09.915Z,25.42
2022-08-28T11:35:09.903Z,25.35
2022-08-28T11:36:09.894Z,25.20
2022-08-28T11:37:09.880Z,24.86
2022-08-28T11:38:09.865Z,24.51
2022-08-28T11:39:09.846Z,24.45
2022-08-28T11:40:09.868Z,24.31
2022-08-28T11:41:09.821Z,24.27
2022-08-28T11:42:09.812Z,24.23
2022-08-28T11:43:09.803Z,24.18
2022-08-28T11:44:09.789Z,24.12
2022-08-28T11:45:09.773Z,24.09
2022-08-28T11:46:09.850Z,24.11
2022-08-28T11:47:09.748Z,23.97
2022-08-28T11:48:09.735Z,23.93
2022-08-28T11:49:09.718Z,24.12
2022-08-28T11:50:09.717Z,24.29
2022-08-28T11:51:09.694Z,24.36
2022-08-28T11:52:09.681Z,24.52
2022-08-28T11:53:09.720Z,24.63
2022-08-28T11:54:09.658Z,24.84
2022-08-28T11:55:09.637Z,25.04
2022-08-28T11:56:09.625Z,25.59
2022-08-28T11:57:09.609Z,26.41
2022-08-28T11:58:33.186Z,26.75
2022-08-28T11:59:34.907Z,26.78
2022-08-28T12:00:33.158Z,26.60
2022-08-28T12:01:33.134Z,26.81
2022-08-28T12:02:33.179Z,27.20
2022-08-28T12:03:33.118Z,27.16
2022-08-28T12:04:33.143Z,26.57
2022-08-28T12:05:33.096Z,26.17
2022-08-28T12:06:33.081Z,25.90
2022-08-28T12:07:33.063Z,25.59
2022-08-28T12:08:33.052Z,25.38
2022-08-28T12:09:33.040Z,25.31
2022-08-28T12:10:33.029Z,25.34
2022-08-28T12:11:33.008Z,25.39
2022-08-28T12:12:32.999Z,25.39
2022-08-28T12:13:32.982Z,25.91
2022-08-28T12:14:32.978Z,27.15
2022-08-28T12:15:32.953Z,28.03
2022-08-28T12:16:32.950Z,28.80
2022-08-28T12:17:32.934Z,29.33
2022-08-28T12:18:32.921Z,30.04
2022-08-28T12:19:32.905Z,30.59
2022-08-28T12:20:32.897Z,30.91
2022-08-28T12:21:32.880Z,31.30
2022-08-28T12:22:32.870Z,31.64
2022-08-28T12:23:32.854Z,32.16
2022-08-28T12:24:32.847Z,32.25
2022-08-28T12:25:32.834Z,32.29
2022-08-28T12:26:32.819Z,32.29
2022-08-28T12:27:32.808Z,31.16
2022-08-28T12:28:32.799Z,31.00
2022-08-28T12:29:32.780Z,31.09
2022-08-28T12:30:32.827Z,30.03
2022-08-28T12:31:32.761Z,29.17
2022-08-28T12:32:32.747Z,29.07
2022-08-28T12:33:32.725Z,29.17
2022-08-28T12:34:32.728Z,29.57
2022-08-28T12:35:32.704Z,29.81
2022-08-28T12:36:32.698Z,30.08
2022-08-28T12:37:39.485Z,30.19
2022-08-28T12:38:33.690Z,29.67
2022-08-28T12:39:32.651Z,29.33
2022-08-28T12:40:32.745Z,29.32
2022-08-28T12:41:32.634Z,29.05
2022-08-28T12:42:32.617Z,28.76
2022-08-28T12:43:32.599Z,28.80
2022-08-28T12:44:32.594Z,29.10
2022-08-28T12:45:32.587Z,29.45
2022-08-28T12:46:32.598Z,29.25
2022-08-28T12:47:32.556Z,29.33
2022-08-28T12:48:32.544Z,29.60
2022-08-28T12:49:32.528Z,29.67
2022-08-28T12:50:32.515Z,29.81
2022-08-28T12:51:32.504Z,30.19
2022-08-28T12:52:32.492Z,30.61